createdAt,value
2017-04-08T00:00:54.288Z,9.00
2017-04-08T00:01:53.412Z,9.00
2017-04-08T00:02:53.317Z,9.00
2017-04-08T00:03:53.155Z,9.00
2017-04-08T00:04:52.251Z,9.00
2017-04-08T00:05:51.328Z,9.00
2017-04-08T00:06:50.411Z,9.00
2017-04-08T00:07:49.560Z,9.00
2017-04-08T00:08:48.681Z,9.00
2017-04-08T00:09:47.856Z,9.00
2017-04-08T00:10:46.962Z,9.00
2017-04-08T00:11:46.799Z,9.00
2017-04-08T00:12:45.941Z,9.00
2017-04-08T00:13:45.836Z,9.00
2017-04-08T00:14:45.715Z,9.00
2017-04-08T00:15:44.787Z,9.00
2017-04-08T00:16:43.911Z,9.00
2017-04-08T00:17:42.944Z,9.10
2017-04-08T00:18:41.956Z,9.10
2017-04-08T00:19:41.050Z,9.10
2017-04-08T00:20:40.136Z,9.00
2017-04-08T00:21:39.284Z,9.10
2017-04-08T00:22:38.353Z,9.00
2017-04-08T00:23:37.517Z,9.00
2017-04-08T00:24:36.696Z,9.00
2017-04-08T00:25:35.748Z,9.10
2017-04-08T00:26:34.865Z,9.00
2017-04-08T00:27:33.983Z,9.10
2017-04-08T00:28:33.064Z,9.10
2017-04-08T00:29:32.256Z,9.00
2017-04-08T00:30:31.448Z,9.00
2017-04-08T00:31:30.494Z,9.00
2017-04-08T00:32:30.353Z,9.00
2017-04-08T00:33:29.447Z,9.10
2017-04-08T00:34:28.535Z,9.10
2017-04-08T00:35:27.675Z,9.10
2017-04-08T00:36:26.728Z,9.10
2017-04-08T00:37:25.824Z,9.10
2017-04-08T00:38:24.950Z,9.10
2017-04-08T00:39:24.828Z,9.10
2017-04-08T00:40:23.884Z,9.10
2017-04-08T00:41:23.031Z,9.10
2017-04-08T00:42:22.132Z,9.10
2017-04-08T00:43:21.269Z,9.10
2017-04-08T00:44:21.005Z,9.10
2017-04-08T00:45:20.080Z,9.10
2017-04-08T00:46:19.189Z,9.10
2017-04-08T00:47:18.333Z,9.10
2017-04-08T00:48:17.481Z,9.10
2017-04-08T00:49:16.600Z,9.10
2017-04-08T00:50:15.675Z,9.10
2017-04-08T00:51:14.783Z,9.10
2017-04-08T00:52:13.868Z,9.10
2017-04-08T00:53:12.932Z,9.10
2017-04-08T00:54:12.061Z,9.10
2017-04-08T00:55:11.901Z,9.10
2017-04-08T00:56:10.992Z,9.10
2017-04-08T00:57:10.071Z,9.10
2017-04-08T00:58:09.172Z,9.10
2017-04-08T00:59:08.273Z,9.10
2017-04-08T01:00:08.224Z,9.10
2017-04-08T01:01:13.851Z,9.10
2017-04-08T01:02:13.105Z,9.10
2017-04-08T01:03:12.216Z,9.10
2017-04-08T01:04:11.312Z,9.10
2017-04-08T01:05:10.438Z,9.10
2017-04-08T01:06:16.231Z,9.10
2017-04-08T01:07:15.322Z,9.10
2017-04-08T01:08:14.452Z,9.10
2017-04-08T01:09:13.628Z,9.10
2017-04-08T01:10:12.728Z,9.10
2017-04-08T01:11:11.943Z,9.10
2017-04-08T01:12:10.988Z,9.10
2017-04-08T01:13:11.316Z,9.10
2017-04-08T01:14:10.447Z,9.10
2017-04-08T01:15:09.517Z,9.10
2017-04-08T01:16:09.365Z,9.10
2017-04-08T01:17:08.487Z,9.10
2017-04-08T01:18:07.579Z,9.10
2017-04-08T01:19:06.652Z,9.10
2017-04-08T01:20:05.757Z,9.10
2017-04-08T01:21:04.948Z,9.10
2017-04-08T01:22:04.088Z,9.10
2017-04-08T01:23:04.032Z,9.10
2017-04-08T01:24:03.191Z,9.10
2017-04-08T01:25:02.140Z,9.10
2017-04-08T01:26:01.984Z,9.10
2017-04-08T01:27:01.160Z,9.10
2017-04-08T01:28:00.228Z,9.10
2017-04-08T01:28:59.424Z,9.10
2017-04-08T01:29:58.503Z,9.10
2017-04-08T01:30:57.732Z,9.10
2017-04-08T01:31:57.547Z,9.10
2017-04-08T01:32:56.597Z,9.10
2017-04-08T01:33:56.449Z,9.10
2017-04-08T01:34:55.496Z,9.20
2017-04-08T01:35:54.572Z,9.10
2017-04-08T01:36:53.672Z,9.10
2017-04-08T01:37:52.905Z,9.10
2017-04-08T01:38:51.959Z,9.10
2017-04-08T01:39:51.071Z,9.10
2017-04-08T01:40:50.896Z,9.20
2017-04-08T01:41:50.040Z,9.10
2017-04-08T01:42:49.172Z,9.20
2017-04-08T01:43:48.281Z,9.20
2017-04-08T01:44:47.392Z,9.20
2017-04-08T01:45:47.267Z,9.10
2017-04-08T01:46:46.366Z,9.20
2017-04-08T01:47:46.221Z,9.20
2017-04-08T01:48:45.397Z,9.20
2017-04-08T01:49:44.522Z,9.20
2017-04-08T01:50:44.319Z,9.10
2017-04-08T01:51:44.120Z,9.10
2017-04-08T01:52:44.000Z,9.10
2017-04-08T01:53:43.136Z,9.10
2017-04-08T01:54:42.208Z,9.10
2017-04-08T01:55:41.484Z,9.10
2017-04-08T01:56:40.571Z,9.10
2017-04-08T01:57:39.712Z,9.10
2017-04-08T01:58:39.563Z,9.10
2017-04-08T01:59:38.668Z,9.10
2017-04-08T02:00:37.904Z,9.10
2017-04-08T02:01:36.945Z,9.10
2017-04-08T02:02:36.813Z,9.10
2017-04-08T02:03:36.025Z,9.10
2017-04-08T02:04:35.964Z,9.10
2017-04-08T02:05:35.269Z,9.10
2017-04-08T02:06:34.363Z,9.10
2017-04-08T02:07:33.325Z,9.10
2017-04-08T02:08:32.446Z,9.10
2017-04-08T02:09:32.288Z,9.20
2017-04-08T02:10:31.479Z,9.10
2017-04-08T02:11:31.256Z,9.10
2017-04-08T02:12:30.515Z,9.20
2017-04-08T02:13:30.232Z,9.20
2017-04-08T02:14:29.340Z,9.20
2017-04-08T02:15:28.493Z,9.20
2017-04-08T02:16:27.660Z,9.20
2017-04-08T02:17:26.864Z,9.20
2017-04-08T02:18:25.951Z,9.20
2017-04-08T02:19:25.042Z,9.20
2017-04-08T02:20:24.072Z,9.20
2017-04-08T02:21:23.791Z,9.10
2017-04-08T02:22:22.912Z,9.10
2017-04-08T02:23:22.006Z,9.10
2017-04-08T02:24:21.905Z,9.10
2017-04-08T02:25:21.764Z,9.10
2017-04-08T02:26:20.937Z,9.10
2017-04-08T02:27:20.008Z,9.10
2017-04-08T02:28:19.113Z,9.10
2017-04-08T02:29:18.232Z,9.20
2017-04-08T02:30:17.317Z,9.20
2017-04-08T02:31:16.489Z,9.20
2017-04-08T02:32:16.299Z,9.20
2017-04-08T02:33:15.427Z,9.20
2017-04-08T02:34:14.464Z,9.20
2017-04-08T02:35:13.523Z,9.20
2017-04-08T02:36:13.411Z,9.10
2017-04-08T02:37:13.251Z,9.10
2017-04-08T02:38:12.320Z,9.10
2017-04-08T02:39:11.455Z,9.10
2017-04-08T02:40:10.563Z,9.10
2017-04-08T02:41:09.635Z,9.10
2017-04-08T02:42:09.968Z,9.10
2017-04-08T02:43:09.132Z,9.20
2017-04-08T02:44:08.216Z,9.20
2017-04-08T02:45:07.242Z,9.20
2017-04-08T02:46:06.391Z,9.20
2017-04-08T02:47:05.480Z,9.20
2017-04-08T02:48:04.661Z,9.20
2017-04-08T02:49:03.828Z,9.20
2017-04-08T02:50:02.903Z,9.10
2017-04-08T02:51:02.089Z,9.10
2017-04-08T02:52:01.168Z,9.20
2017-04-08T02:53:00.228Z,9.20
2017-04-08T02:53:59.411Z,9.20
2017-04-08T02:54:58.448Z,9.20
2017-04-08T02:55:57.524Z,9.10
2017-04-08T02:56:56.645Z,9.10
2017-04-08T02:57:55.777Z,9.10
2017-04-08T02:58:54.924Z,9.10
2017-04-08T02:59:54.058Z,9.10
2017-04-08T03:00:54.131Z,9.10
2017-04-08T03:01:53.248Z,9.10
2017-04-08T03:02:53.093Z,9.10
2017-04-08T03:03:52.186Z,9.10
2017-04-08T03:04:51.327Z,9.10
2017-04-08T03:05:50.463Z,9.10
2017-04-08T03:06:49.521Z,9.10
2017-04-08T03:07:48.940Z,9.10
2017-04-08T03:08:48.807Z,9.10
2017-04-08T03:09:48.049Z,9.10
2017-04-08T03:10:46.349Z,9.10
2017-04-08T03:11:45.484Z,9.10
2017-04-08T03:12:44.660Z,9.10
2017-04-08T03:13:44.587Z,9.10
2017-04-08T03:14:43.744Z,9.10
2017-04-08T03:15:42.867Z,9.10
2017-04-08T03:16:41.996Z,9.10
2017-04-08T03:17:41.880Z,9.10
2017-04-08T03:18:41.784Z,9.10
2017-04-08T03:19:41.628Z,9.10
2017-04-08T03:20:40.768Z,9.10
2017-04-08T03:21:40.360Z,9.10
2017-04-08T03:22:40.572Z,9.10
2017-04-08T03:23:39.729Z,9.10
2017-04-08T03:24:40.000Z,9.10
2017-04-08T03:25:39.089Z,9.10
2017-04-08T03:26:38.224Z,9.10
2017-04-08T03:27:37.296Z,9.10
2017-04-08T03:28:36.616Z,9.10
2017-04-08T03:29:35.819Z,9.10
2017-04-08T03:30:34.955Z,9.10
2017-04-08T03:31:33.964Z,9.10
2017-04-08T03:32:33.048Z,9.10
2017-04-08T03:33:32.079Z,9.10
2017-04-08T03:34:31.299Z,9.10
2017-04-08T03:35:30.336Z,9.10
2017-04-08T03:36:29.442Z,9.00
2017-04-08T03:37:28.609Z,9.00
2017-04-08T03:38:27.719Z,9.00
2017-04-08T03:39:26.840Z,9.10
2017-04-08T03:40:25.968Z,9.10
2017-04-08T03:41:25.091Z,9.10
2017-04-08T03:42:24.891Z,9.10
2017-04-08T03:43:24.739Z,9.10
2017-04-08T03:44:23.904Z,9.10
2017-04-08T03:45:22.991Z,9.10
2017-04-08T03:46:22.122Z,9.10
2017-04-08T03:47:21.911Z,9.10
2017-04-08T03:48:21.025Z,9.10
2017-04-08T03:49:20.103Z,9.10
2017-04-08T03:50:19.176Z,9.10
2017-04-08T03:51:18.176Z,9.10
2017-04-08T03:52:17.340Z,9.10
2017-04-08T03:53:16.388Z,9.10
2017-04-08T03:54:16.296Z,9.10
2017-04-08T03:55:16.128Z,9.10
2017-04-08T03:56:15.211Z,9.10
2017-04-08T03:57:15.032Z,9.10
2017-04-08T03:58:14.184Z,9.10
2017-04-08T03:59:13.409Z,9.10
2017-04-08T04:00:13.291Z,9.00
2017-04-08T04:01:12.440Z,9.10
2017-04-08T04:02:11.491Z,9.10
2017-04-08T04:03:10.672Z,9.10
2017-04-08T04:04:10.502Z,9.10
2017-04-08T04:05:09.584Z,9.10
2017-04-08T04:06:08.675Z,9.10
2017-04-08T04:07:07.807Z,9.10
2017-04-08T04:08:06.917Z,9.10
2017-04-08T04:09:06.204Z,9.10
2017-04-08T04:10:05.315Z,9.10
2017-04-08T04:11:04.431Z,9.00
2017-04-08T04:12:03.563Z,9.10
2017-04-08T04:13:02.585Z,9.10
2017-04-08T04:14:01.684Z,9.10
2017-04-08T04:15:00.752Z,9.10
2017-04-08T04:15:59.874Z,9.10
2017-04-08T04:16:58.996Z,9.10
2017-04-08T04:17:58.748Z,9.10
2017-04-08T04:18:57.896Z,9.10
2017-04-08T04:19:57.016Z,9.10
2017-04-08T04:20:56.080Z,9.10
2017-04-08T04:21:55.200Z,9.10
2017-04-08T04:22:54.348Z,9.10
2017-04-08T04:23:53.424Z,9.10
2017-04-08T04:24:52.620Z,9.10
2017-04-08T04:25:51.825Z,9.10
2017-04-08T04:26:51.643Z,9.10
2017-04-08T04:27:50.644Z,9.10
2017-04-08T04:28:49.689Z,9.10
2017-04-08T04:29:48.789Z,9.00
2017-04-08T04:30:47.888Z,9.00
2017-04-08T04:31:46.983Z,9.00
2017-04-08T04:32:46.097Z,9.10
2017-04-08T04:33:45.955Z,9.00
2017-04-08T04:34:44.991Z,9.10
2017-04-08T04:35:44.095Z,9.00
2017-04-08T04:36:43.280Z,9.00
2017-04-08T04:37:42.324Z,9.00
2017-04-08T04:38:41.409Z,9.10
2017-04-08T04:39:40.484Z,9.10
2017-04-08T04:40:39.656Z,9.10
2017-04-08T04:41:38.767Z,9.00
2017-04-08T04:42:37.703Z,9.00
2017-04-08T04:43:37.482Z,9.00
2017-04-08T04:44:36.584Z,9.00
2017-04-08T04:45:36.444Z,9.00
2017-04-08T04:46:35.504Z,9.00
2017-04-08T04:47:34.631Z,9.00
2017-04-08T04:48:34.526Z,9.00
2017-04-08T04:49:34.312Z,9.00
2017-04-08T04:50:34.176Z,9.00
2017-04-08T04:51:33.311Z,9.00
2017-04-08T04:52:32.434Z,9.00
2017-04-08T04:53:31.522Z,9.00
2017-04-08T04:54:30.654Z,9.00
2017-04-08T04:55:29.748Z,9.00
2017-04-08T04:56:28.878Z,9.00
2017-04-08T04:57:27.955Z,9.00
2017-04-08T04:58:26.988Z,9.00
2017-04-08T04:59:26.048Z,9.00
2017-04-08T05:00:25.123Z,9.00
2017-04-08T05:01:24.295Z,9.00
2017-04-08T05:02:24.047Z,9.00
2017-04-08T05:03:23.105Z,9.00
2017-04-08T05:04:22.229Z,8.90
2017-04-08T05:05:21.364Z,8.90
2017-04-08T05:06:20.453Z,8.90
2017-04-08T05:07:19.575Z,9.00
2017-04-08T05:08:18.623Z,9.00
2017-04-08T05:09:17.875Z,9.00
2017-04-08T05:10:17.000Z,9.00
2017-04-08T05:11:15.992Z,9.00
2017-04-08T05:12:15.891Z,9.00
2017-04-08T05:13:15.631Z,9.00
2017-04-08T05:14:14.761Z,9.00
2017-04-08T05:15:14.579Z,9.00
2017-04-08T05:16:13.738Z,9.00
2017-04-08T05:17:13.575Z,9.00
2017-04-08T05:18:12.699Z,9.00
2017-04-08T05:19:11.812Z,9.00
2017-04-08T05:20:10.949Z,9.00
2017-04-08T05:21:10.024Z,9.00
2017-04-08T05:22:09.112Z,9.00
2017-04-08T05:23:08.147Z,9.00
2017-04-08T05:24:07.408Z,9.00
2017-04-08T05:25:06.408Z,9.00
2017-04-08T05:26:05.388Z,9.00
2017-04-08T05:27:04.540Z,9.10
2017-04-08T05:28:04.357Z,9.00
2017-04-08T05:29:03.470Z,9.00
2017-04-08T05:30:02.488Z,9.10
2017-04-08T05:31:01.523Z,9.10
2017-04-08T05:32:00.607Z,9.10
2017-04-08T05:32:59.574Z,9.10
2017-04-08T05:33:58.624Z,9.10
2017-04-08T05:34:57.711Z,9.10
2017-04-08T05:35:56.796Z,9.10
2017-04-08T05:36:56.216Z,9.10
2017-04-08T05:37:55.416Z,9.10
2017-04-08T05:38:55.248Z,9.00
2017-04-08T05:39:54.189Z,9.00
2017-04-08T05:40:53.984Z,9.00
2017-04-08T05:41:53.908Z,9.00
2017-04-08T05:42:52.952Z,9.00
2017-04-08T05:43:52.890Z,9.10
2017-04-08T05:44:51.959Z,9.10
2017-04-08T05:45:50.915Z,9.10
2017-04-08T05:46:50.725Z,9.10
2017-04-08T05:47:50.591Z,9.10
2017-04-08T05:48:49.829Z,9.10
2017-04-08T05:49:49.019Z,9.20
2017-04-08T05:50:48.195Z,9.10
2017-04-08T05:51:47.229Z,9.10
2017-04-08T05:52:46.956Z,9.10
2017-04-08T05:53:45.940Z,9.10
2017-04-08T05:54:45.158Z,9.10
2017-04-08T05:55:44.195Z,9.10
2017-04-08T05:56:43.256Z,9.10
2017-04-08T05:57:42.428Z,9.10
2017-04-08T05:58:42.336Z,9.10
2017-04-08T05:59:42.127Z,9.10
2017-04-08T06:00:42.029Z,9.10
2017-04-08T06:01:41.831Z,9.10
2017-04-08T06:02:41.044Z,9.10
2017-04-08T06:03:40.108Z,9.10
2017-04-08T06:04:39.260Z,9.10
2017-04-08T06:05:38.516Z,9.10
2017-04-08T06:06:37.627Z,9.10
2017-04-08T06:07:37.491Z,9.10
2017-04-08T06:08:36.571Z,9.10
2017-04-08T06:09:35.621Z,9.20
2017-04-08T06:10:34.798Z,9.20
2017-04-08T06:11:33.879Z,9.20
2017-04-08T06:12:32.939Z,9.10
2017-04-08T06:13:32.096Z,9.10
2017-04-08T06:14:31.116Z,9.10
2017-04-08T06:15:30.265Z,9.10
2017-04-08T06:16:29.436Z,9.10
2017-04-08T06:17:29.324Z,9.10
2017-04-08T06:18:29.172Z,9.10
2017-04-08T06:19:28.256Z,9.10
2017-04-08T06:20:27.433Z,9.10
2017-04-08T06:21:26.485Z,9.10
2017-04-08T06:22:25.616Z,9.10
2017-04-08T06:23:24.828Z,9.20
2017-04-08T06:24:23.891Z,9.20
2017-04-08T06:26:22.663Z,9.20
2017-04-08T06:27:21.760Z,9.20
2017-04-08T06:28:20.844Z,9.20
2017-04-08T06:29:19.963Z,9.20
2017-04-08T06:30:19.035Z,9.20
2017-04-08T06:31:18.184Z,9.20
2017-04-08T06:32:17.261Z,9.20
2017-04-08T06:33:16.310Z,9.20
2017-04-08T06:34:16.197Z,9.20
2017-04-08T06:35:15.323Z,9.20
2017-04-08T06:36:14.516Z,9.20
2017-04-08T06:37:13.636Z,9.20
2017-04-08T06:38:12.696Z,9.20
2017-04-08T06:39:11.751Z,9.20
2017-04-08T06:40:15.363Z,9.20
2017-04-08T06:41:14.455Z,9.20
2017-04-08T06:42:13.522Z,9.20
2017-04-08T06:44:12.188Z,9.20
2017-04-08T06:45:11.375Z,9.20
2017-04-08T06:46:10.343Z,9.20
2017-04-08T06:47:09.460Z,9.20
2017-04-08T06:48:09.311Z,9.20
2017-04-08T06:49:08.384Z,9.20
2017-04-08T06:50:07.456Z,9.20
2017-04-08T06:51:06.837Z,9.20
2017-04-08T06:52:06.000Z,9.20
2017-04-08T06:53:05.873Z,9.30
2017-04-08T06:54:05.659Z,9.30
2017-04-08T06:55:04.683Z,9.30
2017-04-08T06:56:03.772Z,9.30
2017-04-08T06:57:02.865Z,9.30
2017-04-08T06:58:01.936Z,9.30
2017-04-08T06:59:01.064Z,9.40
2017-04-08T07:00:59.676Z,9.40
2017-04-08T07:01:58.814Z,9.40
2017-04-08T07:02:58.644Z,9.30
2017-04-08T07:03:57.816Z,9.40
2017-04-08T07:04:56.929Z,9.40
2017-04-08T07:05:56.068Z,9.40
2017-04-08T07:06:55.438Z,9.40
2017-04-08T07:07:55.377Z,9.40
2017-04-08T07:08:54.543Z,9.40
2017-04-08T07:09:53.696Z,9.40
2017-04-08T07:10:53.556Z,9.40
2017-04-08T07:11:53.434Z,9.40
2017-04-08T07:12:52.568Z,9.50
2017-04-08T07:13:52.408Z,9.40
2017-04-08T07:14:51.432Z,9.50
2017-04-08T07:15:50.644Z,9.50
2017-04-08T07:16:49.755Z,9.50
2017-04-08T07:17:48.855Z,9.50
2017-04-08T07:18:48.008Z,9.50
2017-04-08T07:19:47.139Z,9.50
2017-04-08T07:20:46.978Z,9.50
2017-04-08T07:21:46.124Z,9.50
2017-04-08T07:22:46.161Z,9.50
2017-04-08T07:23:45.406Z,9.50
2017-04-08T07:24:44.554Z,9.50
2017-04-08T07:25:44.059Z,9.50
2017-04-08T07:26:43.897Z,9.50
2017-04-08T07:27:43.080Z,9.50
2017-04-08T07:28:42.364Z,9.50
2017-04-08T07:29:41.808Z,9.50
2017-04-08T07:30:41.294Z,9.50
2017-04-08T07:31:41.351Z,9.50
2017-04-08T07:32:40.533Z,9.50
2017-04-08T07:33:40.424Z,9.50
2017-04-08T07:34:39.755Z,9.50
2017-04-08T07:35:39.421Z,9.50
2017-04-08T07:36:38.802Z,9.60
2017-04-08T07:37:37.999Z,9.60
2017-04-08T07:38:37.148Z,9.60
2017-04-08T07:39:36.442Z,9.60
2017-04-08T07:40:35.828Z,9.60
2017-04-08T07:41:35.086Z,9.60
2017-04-08T07:42:34.419Z,9.60
2017-04-08T07:43:33.649Z,9.60
2017-04-08T07:44:33.618Z,9.60
2017-04-08T07:45:32.844Z,9.70
2017-04-08T07:46:32.024Z,9.70
2017-04-08T07:47:31.202Z,9.70
2017-04-08T07:48:30.411Z,9.70
2017-04-08T07:49:29.535Z,9.80
2017-04-08T07:50:29.411Z,9.80
2017-04-08T07:51:28.551Z,9.80
2017-04-08T07:52:27.671Z,9.80
2017-04-08T07:53:26.816Z,9.90
2017-04-08T07:54:26.125Z,9.90
2017-04-08T07:55:25.244Z,9.80
2017-04-08T07:56:25.280Z,9.90
2017-04-08T07:57:24.473Z,9.90
2017-04-08T07:58:23.571Z,9.90
2017-04-08T07:59:22.652Z,9.90
2017-04-08T08:00:21.861Z,9.90
2017-04-08T08:01:21.760Z,9.90
2017-04-08T08:02:21.618Z,10.00
2017-04-08T08:03:20.636Z,10.00
2017-04-08T08:04:20.436Z,10.00
2017-04-08T08:05:19.580Z,10.00
2017-04-08T08:06:18.675Z,10.00
2017-04-08T08:07:18.122Z,10.00
2017-04-08T08:08:17.298Z,10.00
2017-04-08T08:09:16.473Z,10.00
2017-04-08T08:10:15.629Z,10.00
2017-04-08T08:11:15.544Z,10.00
2017-04-08T08:12:14.644Z,10.10
2017-04-08T08:13:13.771Z,10.10
2017-04-08T08:14:13.644Z,10.10
2017-04-08T08:15:12.647Z,10.10
2017-04-08T08:16:11.776Z,10.10
2017-04-08T08:17:11.361Z,10.10
2017-04-08T08:18:10.497Z,10.10
2017-04-08T08:19:09.799Z,10.10
2017-04-08T08:20:08.844Z,10.20
2017-04-08T08:22:08.416Z,10.20
2017-04-08T08:23:07.486Z,10.20
2017-04-08T08:24:06.620Z,10.20
2017-04-08T08:25:06.437Z,10.20
2017-04-08T08:26:05.608Z,10.20
2017-04-08T08:27:04.696Z,10.30
2017-04-08T08:28:03.719Z,10.30
2017-04-08T08:29:02.875Z,10.30
2017-04-08T08:30:02.040Z,10.30
2017-04-08T08:31:01.132Z,10.40
2017-04-08T08:32:00.235Z,10.40
2017-04-08T08:32:59.328Z,10.40
2017-04-08T08:33:59.168Z,10.40
2017-04-08T08:34:58.240Z,10.40
2017-04-08T08:35:57.239Z,10.40
2017-04-08T08:36:56.349Z,10.40
2017-04-08T08:37:55.500Z,10.40
2017-04-08T08:38:54.551Z,10.40
2017-04-08T08:39:53.684Z,10.50
2017-04-08T08:40:52.820Z,10.50
2017-04-08T08:41:52.027Z,10.50
2017-04-08T08:42:51.170Z,10.50
2017-04-08T08:43:50.276Z,10.50
2017-04-08T08:44:49.415Z,10.60
2017-04-08T08:45:49.280Z,10.60
2017-04-08T08:46:49.236Z,10.60
2017-04-08T08:47:48.408Z,10.60
2017-04-08T08:48:47.585Z,10.70
2017-04-08T08:49:46.704Z,10.70
2017-04-08T08:50:45.768Z,10.70
2017-04-08T08:51:44.847Z,10.70
2017-04-08T08:52:43.923Z,10.80
2017-04-08T08:53:43.000Z,10.80
2017-04-08T08:54:42.077Z,10.80
2017-04-08T08:55:41.247Z,10.80
2017-04-08T08:56:40.510Z,10.80
2017-04-08T08:57:40.475Z,10.80
2017-04-08T08:58:39.723Z,10.80
2017-04-08T08:59:38.852Z,10.80
2017-04-08T09:00:38.379Z,10.80
2017-04-08T09:01:36.760Z,10.80
2017-04-08T09:02:35.949Z,10.90
2017-04-08T09:03:35.125Z,10.90
2017-04-08T09:04:34.097Z,10.90
2017-04-08T09:05:33.287Z,10.90
2017-04-08T09:06:32.530Z,11.00
2017-04-08T09:07:31.621Z,11.00
2017-04-08T09:08:30.885Z,11.00
2017-04-08T09:09:30.719Z,11.00
2017-04-08T09:10:29.899Z,11.00
2017-04-08T09:11:29.042Z,11.00
2017-04-08T09:12:28.916Z,11.00
2017-04-08T09:13:28.051Z,11.00
2017-04-08T09:14:27.225Z,11.10
2017-04-08T09:15:26.312Z,11.00
2017-04-08T09:16:25.418Z,11.10
2017-04-08T09:17:24.573Z,11.10
2017-04-08T09:18:23.685Z,11.10
2017-04-08T09:19:22.809Z,11.10
2017-04-08T09:20:22.659Z,11.10
2017-04-08T09:21:21.791Z,11.20
2017-04-08T09:22:21.256Z,11.20
2017-04-08T09:23:20.288Z,11.20
2017-04-08T09:24:19.455Z,11.30
2017-04-08T09:25:18.492Z,11.30
2017-04-08T09:26:18.397Z,11.30
2017-04-08T09:27:18.132Z,11.30
2017-04-08T09:28:17.238Z,11.40
2017-04-08T09:29:16.326Z,11.40
2017-04-08T09:30:15.478Z,11.50
2017-04-08T09:31:14.648Z,11.50
2017-04-08T09:32:13.736Z,11.50
2017-04-08T09:33:12.857Z,11.50
2017-04-08T09:34:12.780Z,11.50
2017-04-08T09:35:11.988Z,11.60
2017-04-08T09:36:11.207Z,11.60
2017-04-08T09:37:10.348Z,11.60
2017-04-08T09:38:09.483Z,11.70
2017-04-08T09:39:08.636Z,11.70
2017-04-08T09:40:07.680Z,11.80
2017-04-08T09:41:06.711Z,11.80
2017-04-08T09:42:05.795Z,11.80
2017-04-08T09:43:04.808Z,11.80
2017-04-08T09:44:03.935Z,11.80
2017-04-08T09:45:03.076Z,11.90
2017-04-08T09:46:02.197Z,11.90
2017-04-08T09:47:01.385Z,12.00
2017-04-08T09:48:00.494Z,12.00
2017-04-08T09:49:00.380Z,11.90
2017-04-08T09:50:00.201Z,12.00
2017-04-08T09:50:59.304Z,12.00
2017-04-08T09:51:58.404Z,12.00
2017-04-08T09:52:57.531Z,12.10
2017-04-08T09:53:56.580Z,12.10
2017-04-08T09:54:55.628Z,12.20
2017-04-08T09:55:54.611Z,12.30
2017-04-08T09:56:53.699Z,12.30
2017-04-08T09:57:52.721Z,12.40
2017-04-08T09:58:51.805Z,12.40
2017-04-08T09:59:50.929Z,12.50
2017-04-08T10:00:50.016Z,12.50
2017-04-08T10:01:49.084Z,12.50
2017-04-08T10:02:48.149Z,12.60
2017-04-08T10:03:47.305Z,12.70
2017-04-08T10:04:46.451Z,12.70
2017-04-08T10:05:46.379Z,12.70
2017-04-08T10:06:45.531Z,12.70
2017-04-08T10:07:45.363Z,12.60
2017-04-08T10:08:44.477Z,12.60
2017-04-08T10:09:43.709Z,12.70
2017-04-08T10:10:42.875Z,12.60
2017-04-08T10:11:42.796Z,12.60
2017-04-08T10:12:41.980Z,12.60
2017-04-08T10:13:41.087Z,12.70
2017-04-08T10:14:40.573Z,12.70
2017-04-08T10:15:39.761Z,12.70
2017-04-08T10:16:38.800Z,12.80
2017-04-08T10:17:37.883Z,12.70
2017-04-08T10:18:36.959Z,12.80
2017-04-08T10:19:36.155Z,12.80
2017-04-08T10:20:35.357Z,12.80
2017-04-08T10:21:34.412Z,13.00
2017-04-08T10:22:33.588Z,13.00
2017-04-08T10:23:32.790Z,13.00
2017-04-08T10:24:31.975Z,13.00
2017-04-08T10:25:31.044Z,13.00
2017-04-08T10:26:30.172Z,13.00
2017-04-08T10:27:29.300Z,13.10
2017-04-08T10:28:28.443Z,13.10
2017-04-08T10:29:27.651Z,13.20
2017-04-08T10:30:26.763Z,13.20
2017-04-08T10:31:25.901Z,13.20
2017-04-08T10:32:25.069Z,13.20
2017-04-08T10:33:24.961Z,13.20
2017-04-08T10:34:24.128Z,13.30
2017-04-08T10:35:23.248Z,13.30
2017-04-08T10:36:22.367Z,13.30
2017-04-08T10:37:21.513Z,13.30
2017-04-08T10:38:20.580Z,13.40
2017-04-08T10:39:20.432Z,13.40
2017-04-08T10:40:19.545Z,13.50
2017-04-08T10:41:19.368Z,13.50
2017-04-08T10:42:18.516Z,13.50
2017-04-08T10:43:16.933Z,13.50
2017-04-08T10:44:16.085Z,13.60
2017-04-08T10:45:15.134Z,13.60
2017-04-08T10:46:15.052Z,13.60
2017-04-08T10:47:14.221Z,13.60
2017-04-08T10:48:14.032Z,13.60
2017-04-08T10:49:13.832Z,13.70
2017-04-08T10:50:12.954Z,13.70
2017-04-08T10:51:12.046Z,13.70
2017-04-08T10:52:11.168Z,13.70
2017-04-08T10:53:11.060Z,13.60
2017-04-08T10:54:10.668Z,13.70
2017-04-08T10:55:09.767Z,13.60
2017-04-08T10:56:08.836Z,13.70
2017-04-08T10:57:07.839Z,13.60
2017-04-08T10:58:06.920Z,13.60
2017-04-08T10:59:06.027Z,13.60
2017-04-08T11:00:05.876Z,13.60
2017-04-08T11:01:05.032Z,13.60
2017-04-08T11:02:04.144Z,13.60
2017-04-08T11:03:03.347Z,13.60
2017-04-08T11:04:02.485Z,13.70
2017-04-08T11:05:01.612Z,13.70
2017-04-08T11:06:00.728Z,13.80
2017-04-08T11:06:59.799Z,13.80
2017-04-08T11:07:59.716Z,13.90
2017-04-08T11:08:58.839Z,14.00
2017-04-08T11:09:57.909Z,14.10
2017-04-08T11:10:57.041Z,14.20
2017-04-08T11:11:56.140Z,14.20
2017-04-08T11:12:55.240Z,14.10
2017-04-08T11:13:54.383Z,14.10
2017-04-08T11:14:53.484Z,14.20
2017-04-08T11:15:52.635Z,14.30
2017-04-08T11:16:51.724Z,14.40
2017-04-08T11:17:50.864Z,14.30
2017-04-08T11:18:49.996Z,14.40
2017-04-08T11:19:49.176Z,14.40
2017-04-08T11:20:48.457Z,14.40
2017-04-08T11:21:47.569Z,14.50
2017-04-08T11:22:46.712Z,14.70
2017-04-08T11:23:45.787Z,14.70
2017-04-08T11:24:44.868Z,14.70
2017-04-08T11:25:43.975Z,14.60
2017-04-08T11:26:43.052Z,14.60
2017-04-08T11:27:42.143Z,14.70
2017-04-08T11:28:41.208Z,14.80
2017-04-08T11:29:40.348Z,14.80
2017-04-08T11:30:40.568Z,14.90
2017-04-08T11:31:39.635Z,14.90
2017-04-08T11:32:38.812Z,14.90
2017-04-08T11:33:38.592Z,15.00
2017-04-08T11:34:38.515Z,15.00
2017-04-08T11:35:37.612Z,15.00
2017-04-08T11:36:36.704Z,15.20
2017-04-08T11:37:35.869Z,15.20
2017-04-08T11:38:34.965Z,15.30
2017-04-08T11:39:34.122Z,15.30
2017-04-08T11:40:33.267Z,15.20
2017-04-08T11:41:33.142Z,15.20
2017-04-08T11:42:32.224Z,15.20
2017-04-08T11:43:31.340Z,15.20
2017-04-08T11:44:31.201Z,15.30
2017-04-08T11:45:30.290Z,15.30
2017-04-08T11:46:30.183Z,15.40
2017-04-08T11:47:29.300Z,15.40
2017-04-08T11:48:28.405Z,15.40
2017-04-08T11:49:27.560Z,15.60
2017-04-08T11:50:26.719Z,15.70
2017-04-08T11:51:26.572Z,15.70
2017-04-08T11:52:25.759Z,15.70
2017-04-08T11:53:24.917Z,15.70
2017-04-08T11:54:24.124Z,15.60
2017-04-08T11:55:23.253Z,15.50
2017-04-08T11:56:23.059Z,15.40
2017-04-08T11:57:22.160Z,15.40
2017-04-08T11:58:21.224Z,15.40
2017-04-08T11:59:20.268Z,15.40
2017-04-08T12:00:20.120Z,15.40
2017-04-08T12:01:19.149Z,15.60
2017-04-08T12:02:19.056Z,15.50
2017-04-08T12:03:18.148Z,15.40
2017-04-08T12:04:17.206Z,15.40
2017-04-08T12:05:16.297Z,15.50
2017-04-08T12:06:15.403Z,15.50
2017-04-08T12:07:14.537Z,15.50
2017-04-08T12:08:13.690Z,15.40
2017-04-08T12:09:12.773Z,15.40
2017-04-08T12:10:11.908Z,15.40
2017-04-08T12:11:11.025Z,15.50
2017-04-08T12:12:10.133Z,15.50
2017-04-08T12:13:09.236Z,15.60
2017-04-08T12:14:08.375Z,15.60
2017-04-08T12:15:07.520Z,15.70
2017-04-08T12:16:06.564Z,15.70
2017-04-08T12:17:05.637Z,15.80
2017-04-08T12:18:05.486Z,15.80
2017-04-08T12:19:04.645Z,15.80
2017-04-08T12:20:03.784Z,15.80
2017-04-08T12:21:02.954Z,15.70
2017-04-08T12:22:02.052Z,15.80
2017-04-08T12:23:01.896Z,15.90
2017-04-08T12:24:01.052Z,15.70
2017-04-08T12:25:00.132Z,15.60
2017-04-08T12:25:59.300Z,15.60
2017-04-08T12:26:59.159Z,15.60
2017-04-08T12:27:58.364Z,15.60
2017-04-08T12:28:58.200Z,15.50
2017-04-08T12:29:57.321Z,15.50
2017-04-08T12:30:56.379Z,15.50
2017-04-08T12:31:55.569Z,15.50
2017-04-08T12:32:54.692Z,15.50
2017-04-08T12:33:54.576Z,15.40
2017-04-08T12:34:53.619Z,15.40
2017-04-08T12:35:52.803Z,15.40
2017-04-08T12:36:53.080Z,15.40
2017-04-08T12:37:52.249Z,15.40
2017-04-08T12:38:51.425Z,15.40
2017-04-08T12:39:50.555Z,15.40
2017-04-08T12:40:49.712Z,15.40
2017-04-08T12:41:48.745Z,15.30
2017-04-08T12:42:48.613Z,15.40
2017-04-08T12:43:47.706Z,15.40
2017-04-08T12:44:46.840Z,15.50
2017-04-08T12:45:45.904Z,15.60
2017-04-08T12:46:45.084Z,15.50
2017-04-08T12:47:44.208Z,15.60
2017-04-08T12:48:43.264Z,15.80
2017-04-08T12:49:42.324Z,15.80
2017-04-08T12:50:41.382Z,15.80
2017-04-08T12:51:41.916Z,15.90
2017-04-08T12:52:41.198Z,15.80
2017-04-08T12:53:40.692Z,15.90
2017-04-08T12:54:39.784Z,15.90
2017-04-08T12:55:38.925Z,15.80
2017-04-08T12:56:39.080Z,15.60
2017-04-08T12:57:38.133Z,15.60
2017-04-08T12:58:37.180Z,15.60
2017-04-08T12:59:36.939Z,15.50
2017-04-08T13:00:36.089Z,15.60
2017-04-08T13:01:35.264Z,15.70
2017-04-08T13:02:34.466Z,15.70
2017-04-08T13:03:33.608Z,15.70